LFMO

Orange-Caritat (BA 115) Air Base Airport

Orange/Caritat, France
TAF LFMO 201400Z 2015/2115 20005KT CAVOK
Issued Valid From Valid To
Apr-20 @ 14:00 UTC
(4 hours ago)
Apr-20 @ 15:00 UTC
(3 hours ago)
Apr-21 @ 15:00 UTC
(in 21 hours)
Apr-20 @ 15:00 to Apr-21 @ 15:00
TAF LFMO 201400Z 2015/2115 20005KT CAVOK
Wind Visibility Clouds Conditions
200° at 5 knots 10,000+ meters
  • No significant clouds
TAF LFMO 201400Z 2015/2115 20005KT CAVOK
Issued Apr-20 @ 14:00 UTC
(4 hours ago)
Valid From Apr-20 @ 15:00 UTC
(3 hours ago)
Valid To Apr-21 @ 15:00 UTC
(in 21 hours)
Apr-20 @ 15:00 - Apr-21 @ 15:00
Wind Visibility
200° at 5 knots 10,000+ meters
Clouds
  • No significant clouds
Conditions